createdAt,value
2023-02-16T00:02:35.136Z,60.53
2023-02-16T00:05:38.319Z,68.50
2023-02-16T00:08:42.901Z,69.87
2023-02-16T00:12:05.452Z,67.25
2023-02-16T00:15:18.794Z,60.83
2023-02-16T00:18:22.757Z,60.33
2023-02-16T00:21:26.025Z,70.75
2023-02-16T00:24:30.420Z,67.75
2023-02-16T00:27:33.796Z,74.97
2023-02-16T00:30:37.122Z,72.57
2023-02-16T00:33:43.037Z,66.18
2023-02-16T00:36:46.810Z,70.75
2023-02-16T00:40:16.465Z,62.53
2023-02-16T00:43:30.549Z,64.55
2023-02-16T00:46:35.163Z,66.57
2023-02-16T00:49:38.469Z,75.70
2023-02-16T00:52:46.388Z,70.65
2023-02-16T00:55:49.605Z,69.10
2023-02-16T00:58:53.686Z,66.50
2023-02-16T01:01:57.686Z,70.95
2023-02-16T01:05:01.134Z,71.78
2023-02-16T01:08:33.646Z,72.00
2023-02-16T01:11:36.986Z,68.43
2023-02-16T01:14:40.207Z,69.70
2023-02-16T01:17:43.412Z,65.03
2023-02-16T01:20:47.440Z,67.17
2023-02-16T01:23:50.752Z,70.68
2023-02-16T01:26:55.538Z,70.50
2023-02-16T01:30:23.522Z,68.70
2023-02-16T01:33:26.770Z,68.57
2023-02-16T01:36:37.170Z,70.85
2023-02-16T01:39:43.077Z,74.57
2023-02-16T01:42:52.134Z,71.23
2023-02-16T01:46:06.666Z,72.70
2023-02-16T01:49:15.543Z,69.68
2023-02-16T01:52:36.872Z,70.47
2023-02-16T01:55:44.212Z,71.70
2023-02-16T01:58:52.760Z,75.85
2023-02-16T02:02:04.878Z,69.65
2023-02-16T02:05:37.978Z,74.10
2023-02-16T02:09:02.052Z,74.35
2023-02-16T02:12:36.965Z,75.65
2023-02-16T02:15:40.628Z,71.80
2023-02-16T02:18:45.032Z,65.93
2023-02-16T02:22:13.185Z,71.50
2023-02-16T02:25:50.674Z,71.83
2023-02-16T02:29:03.003Z,70.93
2023-02-16T02:32:25.276Z,75.80
2023-02-16T02:36:10.440Z,75.40
2023-02-16T02:39:20.039Z,75.57
2023-02-16T02:43:04.069Z,67.30
2023-02-16T02:46:24.845Z,73.95
2023-02-16T02:49:28.373Z,76.57
2023-02-16T02:52:31.905Z,69.40
2023-02-16T02:55:58.944Z,69.68
2023-02-16T02:59:27.815Z,68.70
2023-02-16T03:02:35.838Z,74.45
2023-02-16T03:05:41.939Z,72.63
2023-02-16T03:08:51.404Z,76.32
2023-02-16T03:12:15.683Z,70.55
2023-02-16T03:15:20.583Z,72.30
2023-02-16T03:18:47.022Z,74.22
2023-02-16T03:22:08.983Z,67.63
2023-02-16T03:25:30.581Z,71.57
2023-02-16T03:28:55.306Z,73.85
2023-02-16T03:31:59.161Z,65.67
2023-02-16T03:35:02.879Z,80.70
2023-02-16T03:38:06.350Z,75.38
2023-02-16T03:41:09.514Z,73.82
2023-02-16T03:44:12.641Z,77.45
2023-02-16T03:47:16.411Z,77.22
2023-02-16T03:50:19.800Z,79.90
2023-02-16T03:53:23.161Z,71.37
2023-02-16T03:56:26.352Z,79.85
2023-02-16T03:59:30.350Z,73.40
2023-02-16T04:02:33.587Z,70.23
2023-02-16T04:05:37.646Z,74.07
2023-02-16T04:08:40.878Z,65.15
2023-02-16T04:12:02.534Z,73.20
2023-02-16T04:15:11.618Z,67.55
2023-02-16T04:18:16.149Z,69.63
2023-02-16T04:21:19.291Z,69.35
2023-02-16T04:24:22.612Z,73.77
2023-02-16T04:27:25.782Z,74.32
2023-02-16T04:30:31.241Z,72.75
2023-02-16T04:33:34.458Z,71.63
2023-02-16T04:36:37.789Z,69.45
2023-02-16T04:39:41.167Z,70.70
2023-02-16T04:42:45.445Z,74.13
2023-02-16T04:45:48.744Z,69.15
2023-02-16T04:48:52.566Z,72.18
2023-02-16T04:51:55.964Z,79.07
2023-02-16T04:54:59.539Z,71.60
2023-02-16T04:58:02.729Z,75.00
2023-02-16T05:01:06.545Z,75.93
2023-02-16T05:04:10.437Z,75.07
2023-02-16T05:07:13.738Z,79.85
2023-02-16T05:10:16.971Z,80.32
2023-02-16T05:13:40.257Z,81.10
2023-02-16T05:16:45.903Z,73.82
2023-02-16T05:19:54.637Z,78.88
2023-02-16T05:22:57.895Z,77.53
2023-02-16T05:26:01.100Z,73.20
2023-02-16T05:29:11.965Z,71.80
2023-02-16T05:32:39.048Z,69.30
2023-02-16T05:35:42.215Z,66.83
2023-02-16T05:38:45.456Z,79.28
2023-02-16T05:41:49.898Z,77.35
2023-02-16T05:44:53.119Z,74.28
2023-02-16T05:48:18.940Z,62.85
2023-02-16T05:51:22.568Z,68.95
2023-02-16T05:54:25.911Z,65.90
2023-02-16T05:57:29.268Z,59.30
2023-02-16T06:00:33.720Z,57.72
2023-02-16T06:03:37.587Z,57.67
2023-02-16T06:06:41.134Z,60.13
2023-02-16T06:09:44.456Z,65.15
2023-02-16T06:12:47.638Z,62.35
2023-02-16T06:15:56.189Z,64.93
2023-02-16T06:19:00.154Z,92.53
2023-02-16T06:22:03.517Z,82.20
2023-02-16T06:25:06.961Z,89.47
2023-02-16T06:28:17.323Z,80.57
2023-02-16T06:31:30.796Z,113.03
2023-02-16T06:34:36.415Z,96.03
2023-02-16T06:37:39.662Z,90.80
2023-02-16T06:40:43.054Z,80.95
2023-02-16T06:43:46.517Z,84.57
2023-02-16T06:46:50.471Z,84.38
2023-02-16T06:49:56.383Z,87.65
2023-02-16T06:56:26.627Z,75.70
2023-02-16T06:59:52.200Z,79.73
2023-02-16T07:02:55.748Z,74.93
2023-02-16T07:06:23.212Z,78.15
2023-02-16T07:09:27.834Z,74.23
2023-02-16T07:12:58.328Z,61.53
2023-02-16T07:16:09.452Z,77.85
2023-02-16T07:19:26.668Z,69.03
2023-02-16T07:22:33.912Z,73.35
2023-02-16T07:25:41.125Z,71.72
2023-02-16T07:28:44.713Z,80.68
2023-02-16T07:31:51.706Z,67.03
2023-02-16T07:34:55.536Z,76.68
2023-02-16T07:38:20.449Z,73.10
2023-02-16T07:41:25.109Z,70.63
2023-02-16T07:44:36.212Z,71.80
2023-02-16T07:47:39.531Z,68.88
2023-02-16T07:50:45.554Z,66.50
2023-02-16T07:53:49.049Z,63.95
2023-02-16T07:56:52.583Z,66.63
2023-02-16T07:59:56.357Z,68.78
2023-02-16T08:03:02.667Z,68.23
2023-02-16T08:06:07.545Z,70.65
2023-02-16T08:09:16.119Z,68.93
2023-02-16T08:12:22.720Z,71.97
2023-02-16T08:15:25.999Z,62.20
2023-02-16T08:18:33.564Z,59.88
2023-02-16T08:21:39.963Z,62.25
2023-02-16T08:24:43.575Z,59.45
2023-02-16T08:27:54.356Z,61.55
2023-02-16T08:31:10.997Z,63.95
2023-02-16T08:34:18.879Z,68.50
2023-02-16T08:37:25.678Z,65.18
2023-02-16T08:40:32.845Z,66.05
2023-02-16T08:43:36.465Z,66.23
2023-02-16T08:46:42.710Z,62.58
2023-02-16T08:49:46.898Z,65.90
2023-02-16T08:52:50.110Z,71.35
2023-02-16T08:55:57.805Z,62.80
2023-02-16T08:59:07.179Z,69.75
2023-02-16T09:02:16.971Z,65.07
2023-02-16T09:05:32.197Z,56.50
2023-02-16T09:08:39.468Z,71.40
2023-02-16T09:11:49.570Z,68.32
2023-02-16T09:15:02.496Z,61.00
2023-02-16T09:18:09.239Z,64.50
2023-02-16T09:21:15.978Z,65.90
2023-02-16T09:24:22.073Z,60.88
2023-02-16T09:27:26.109Z,69.35
2023-02-16T09:30:32.469Z,63.70
2023-02-16T09:33:36.137Z,57.40
2023-02-16T09:36:39.669Z,55.97
2023-02-16T09:39:43.085Z,55.90
2023-02-16T09:42:58.761Z,53.88
2023-02-16T09:46:03.625Z,50.60
2023-02-16T09:49:11.705Z,56.10
2023-02-16T09:52:28.666Z,51.53
2023-02-16T09:55:42.244Z,64.25
2023-02-16T10:04:23.593Z,50.30
2023-02-16T10:07:51.916Z,59.03
2023-02-16T10:11:29.183Z,52.35
2023-02-16T10:14:52.166Z,50.85
2023-02-16T10:18:05.190Z,49.57
2023-02-16T10:21:15.964Z,51.83
2023-02-16T10:24:19.533Z,48.03
2023-02-16T10:27:23.177Z,43.53
2023-02-16T10:30:29.670Z,35.92
2023-02-16T10:33:33.947Z,43.28
2023-02-16T10:36:46.436Z,47.35
2023-02-16T10:40:27.266Z,43.15
2023-02-16T10:43:35.289Z,40.05
2023-02-16T10:46:47.203Z,41.60
2023-02-16T10:49:52.243Z,42.92
2023-02-16T10:53:14.057Z,38.92
2023-02-16T10:56:44.579Z,40.08
2023-02-16T10:59:48.435Z,43.67
2023-02-16T11:02:53.867Z,42.97
2023-02-16T11:06:21.845Z,27.00
2023-02-16T11:09:29.048Z,30.58
2023-02-16T11:12:39.100Z,28.50
2023-02-16T11:15:43.267Z,38.17
2023-02-16T11:19:08.260Z,34.67
2023-02-16T11:22:31.309Z,32.75
2023-02-16T11:25:34.703Z,30.95
2023-02-16T11:28:46.599Z,26.48
2023-02-16T11:31:49.989Z,29.73
2023-02-16T11:34:54.086Z,29.70
2023-02-16T11:37:57.544Z,30.30
2023-02-16T11:41:07.266Z,25.17
2023-02-16T11:44:28.656Z,30.48
2023-02-16T11:47:43.346Z,32.25
2023-02-16T11:51:00.022Z,26.87
2023-02-16T11:54:07.829Z,27.52
2023-02-16T11:57:15.655Z,27.73
2023-02-16T12:00:24.889Z,26.52
2023-02-16T12:03:51.856Z,30.63
2023-02-16T12:06:55.739Z,31.63
2023-02-16T12:10:08.989Z,30.75
2023-02-16T12:13:28.985Z,28.48
2023-02-16T12:16:46.835Z,32.65
2023-02-16T12:20:07.089Z,27.80
2023-02-16T12:23:28.232Z,26.03
2023-02-16T12:26:41.630Z,30.30
2023-02-16T12:30:09.954Z,28.58
2023-02-16T12:33:49.697Z,31.30
2023-02-16T12:36:52.910Z,29.55
2023-02-16T12:40:00.794Z,31.73
2023-02-16T12:43:45.177Z,24.23
2023-02-16T12:46:58.186Z,29.67
2023-02-16T12:50:08.040Z,31.00
2023-02-16T12:53:47.076Z,33.80
2023-02-16T12:57:13.432Z,30.00
2023-02-16T13:00:25.518Z,28.42
2023-02-16T13:03:37.287Z,34.55
2023-02-16T13:06:57.454Z,37.90
2023-02-16T13:10:30.861Z,29.27
2023-02-16T13:13:35.691Z,36.37
2023-02-16T13:16:44.117Z,30.33
2023-02-16T13:19:49.337Z,33.03
2023-02-16T13:23:01.793Z,26.73
2023-02-16T13:26:11.178Z,33.10
2023-02-16T13:29:45.285Z,31.13
2023-02-16T13:33:08.422Z,38.20
2023-02-16T13:36:34.004Z,34.75
2023-02-16T13:39:40.998Z,37.60
2023-02-16T13:43:03.913Z,33.67
2023-02-16T13:46:35.478Z,35.97
2023-02-16T13:49:44.078Z,35.05
2023-02-16T13:52:48.760Z,35.95
2023-02-16T13:56:15.186Z,33.97
2023-02-16T13:59:18.724Z,39.92
2023-02-16T14:02:52.681Z,37.93
2023-02-16T14:06:34.129Z,37.72
2023-02-16T14:09:40.273Z,31.92
2023-02-16T14:12:44.493Z,37.55
2023-02-16T14:15:56.588Z,32.38
2023-02-16T14:19:23.032Z,41.57
2023-02-16T14:22:38.596Z,38.22
2023-02-16T14:25:42.467Z,44.45
2023-02-16T14:29:10.436Z,29.60
2023-02-16T14:32:19.626Z,35.45
2023-02-16T14:35:28.953Z,36.53
2023-02-16T14:38:34.499Z,37.38
2023-02-16T14:41:39.009Z,31.55
2023-02-16T14:44:48.238Z,28.08
2023-02-16T14:48:17.352Z,29.45
2023-02-16T14:51:56.930Z,44.30
2023-02-16T14:55:24.529Z,41.67
2023-02-16T14:58:51.933Z,34.42
2023-02-16T15:01:55.987Z,30.65
2023-02-16T15:05:14.531Z,32.90
2023-02-16T15:08:19.316Z,39.53
2023-02-16T15:12:24.342Z,43.00
2023-02-16T15:15:48.713Z,38.22
2023-02-16T15:18:58.285Z,42.25
2023-02-16T15:22:28.780Z,30.50
2023-02-16T15:25:33.998Z,34.37
2023-02-16T15:28:39.527Z,41.33
2023-02-16T15:31:47.225Z,31.67
2023-02-16T15:34:50.686Z,31.83
2023-02-16T15:38:21.185Z,39.30
2023-02-16T15:41:34.645Z,41.37
2023-02-16T15:44:39.245Z,34.60
2023-02-16T15:47:44.691Z,40.38
2023-02-16T15:50:50.657Z,33.97
2023-02-16T15:53:57.392Z,38.92
2023-02-16T15:57:04.228Z,40.03
2023-02-16T16:00:20.874Z,41.00
2023-02-16T16:03:26.742Z,40.30
2023-02-16T16:06:38.214Z,40.08
2023-02-16T16:09:42.919Z,41.25
2023-02-16T16:12:48.224Z,37.63
2023-02-16T16:15:53.944Z,42.50
2023-02-16T16:19:08.177Z,38.33
2023-02-16T16:22:39.800Z,41.95
2023-02-16T16:25:46.494Z,40.50
2023-02-16T16:28:50.682Z,38.90
2023-02-16T16:31:54.723Z,42.90
2023-02-16T16:34:58.154Z,38.28
2023-02-16T16:38:05.028Z,48.15
2023-02-16T16:41:27.487Z,47.80
2023-02-16T16:44:43.546Z,51.07
2023-02-16T16:47:52.214Z,50.50
2023-02-16T16:51:10.726Z,50.13
2023-02-16T16:54:35.831Z,46.42
2023-02-16T16:57:39.238Z,51.47
2023-02-16T17:00:42.918Z,48.80
2023-02-16T17:03:46.644Z,44.78
2023-02-16T17:06:49.828Z,49.15
2023-02-16T17:09:53.293Z,55.28
2023-02-16T17:13:00.071Z,50.95
2023-02-16T17:16:15.776Z,50.30
2023-02-16T17:19:22.056Z,48.75
2023-02-16T17:22:25.644Z,55.90
2023-02-16T17:25:28.857Z,50.75
2023-02-16T17:28:36.718Z,49.95
2023-02-16T17:31:40.621Z,49.07
2023-02-16T17:34:44.781Z,50.83
2023-02-16T17:37:48.311Z,53.45
2023-02-16T17:40:54.029Z,51.60
2023-02-16T17:43:57.939Z,56.63
2023-02-16T17:47:01.164Z,53.77
2023-02-16T17:50:05.343Z,54.00
2023-02-16T17:53:14.411Z,59.25
2023-02-16T17:56:20.952Z,57.83
2023-02-16T17:59:24.498Z,59.03
2023-02-16T18:02:28.243Z,64.93
2023-02-16T18:05:32.218Z,72.30
2023-02-16T18:08:38.339Z,70.35
2023-02-16T18:11:42.099Z,66.05
2023-02-16T18:14:45.794Z,76.30
2023-02-16T18:17:48.974Z,71.07
2023-02-16T18:20:54.283Z,73.00
2023-02-16T18:23:57.580Z,72.85
2023-02-16T18:27:01.342Z,84.10
2023-02-16T18:30:06.198Z,80.80
2023-02-16T18:33:10.351Z,80.00
2023-02-16T18:36:13.468Z,82.57
2023-02-16T18:39:17.228Z,78.63
2023-02-16T18:42:21.087Z,84.90
2023-02-16T18:45:24.837Z,86.65
2023-02-16T18:48:28.715Z,86.68
2023-02-16T18:51:33.608Z,90.28
2023-02-16T18:54:37.186Z,101.03
2023-02-16T18:57:40.861Z,92.65
2023-02-16T19:00:48.715Z,96.97
2023-02-16T19:03:52.310Z,93.32
2023-02-16T19:06:56.029Z,93.57
2023-02-16T19:09:59.375Z,99.22
2023-02-16T19:13:03.369Z,97.18
2023-02-16T19:16:07.457Z,91.60
2023-02-16T19:19:11.509Z,102.25
2023-02-16T19:22:15.353Z,112.32
2023-02-16T19:25:19.428Z,119.25
2023-02-16T19:28:22.969Z,105.25
2023-02-16T19:31:32.130Z,103.65
2023-02-16T19:34:35.713Z,104.03
2023-02-16T19:37:39.523Z,112.65
2023-02-16T19:40:43.124Z,107.13
2023-02-16T19:43:47.211Z,104.73
2023-02-16T19:46:50.700Z,117.15
2023-02-16T19:49:54.157Z,115.65
2023-02-16T19:52:57.675Z,119.30
2023-02-16T19:56:03.840Z,107.77
2023-02-16T19:59:08.750Z,120.80
2023-02-16T20:02:15.514Z,106.53
2023-02-16T20:05:19.219Z,105.15
2023-02-16T20:08:22.768Z,104.17
2023-02-16T20:11:28.140Z,109.43
2023-02-16T20:14:31.967Z,107.55
2023-02-16T20:17:35.521Z,101.80
2023-02-16T20:20:39.134Z,106.87
2023-02-16T20:23:43.854Z,100.65
2023-02-16T20:26:49.185Z,106.97
2023-02-16T20:29:52.716Z,101.30
2023-02-16T20:32:56.027Z,105.57
2023-02-16T20:35:59.576Z,120.53
2023-02-16T20:39:04.286Z,106.88
2023-02-16T20:42:08.439Z,105.43
2023-02-16T20:45:13.380Z,110.47
2023-02-16T20:48:17.042Z,97.55
2023-02-16T20:51:20.972Z,109.57
2023-02-16T20:54:24.594Z,105.05
2023-02-16T20:57:28.431Z,101.90
2023-02-16T21:00:32.561Z,99.53
2023-02-16T21:03:36.109Z,103.13
2023-02-16T21:06:39.922Z,97.05
2023-02-16T21:09:44.072Z,107.43
2023-02-16T21:12:47.737Z,102.13
2023-02-16T21:15:51.686Z,107.28
2023-02-16T21:18:55.221Z,99.70
2023-02-16T21:21:58.871Z,95.33
2023-02-16T21:25:02.457Z,97.45
2023-02-16T21:28:05.878Z,103.13
2023-02-16T21:31:12.743Z,104.10
2023-02-16T21:34:16.068Z,101.83
2023-02-16T21:37:19.247Z,94.80
2023-02-16T21:40:41.446Z,92.07
2023-02-16T21:43:45.130Z,89.53
2023-02-16T21:46:48.913Z,89.53
2023-02-16T21:49:52.276Z,93.13
2023-02-16T21:52:56.100Z,100.63
2023-02-16T21:56:19.552Z,88.53
2023-02-16T21:59:22.938Z,92.50
2023-02-16T22:02:26.825Z,86.85
2023-02-16T22:05:30.350Z,89.85
2023-02-16T22:08:38.054Z,90.43
2023-02-16T22:11:41.853Z,83.40
2023-02-16T22:14:45.172Z,86.63
2023-02-16T22:17:49.551Z,97.18
2023-02-16T22:20:53.199Z,93.27
2023-02-16T22:23:57.251Z,99.20
2023-02-16T22:27:00.700Z,102.05
2023-02-16T22:30:05.545Z,99.07
2023-02-16T22:33:08.929Z,102.38
2023-02-16T22:36:15.892Z,94.65
2023-02-16T22:39:20.107Z,88.35
2023-02-16T22:42:23.829Z,92.97
2023-02-16T22:45:27.158Z,86.85
2023-02-16T22:48:30.575Z,84.35
2023-02-16T22:51:34.196Z,76.68
2023-02-16T22:54:37.913Z,87.33
2023-02-16T22:57:41.064Z,80.53
2023-02-16T23:00:47.024Z,85.82
2023-02-16T23:03:53.568Z,95.30
2023-02-16T23:06:56.858Z,93.93
2023-02-16T23:10:00.197Z,94.78
2023-02-16T23:13:04.138Z,94.22
2023-02-16T23:16:17.924Z,107.77
2023-02-16T23:19:24.593Z,98.22
2023-02-16T23:22:29.886Z,95.47
2023-02-16T23:25:33.050Z,95.70
2023-02-16T23:28:38.291Z,101.65
2023-02-16T23:31:44.067Z,105.20
2023-02-16T23:34:47.345Z,100.70
2023-02-16T23:37:50.524Z,102.50
2023-02-16T23:41:01.831Z,106.40
2023-02-16T23:44:06.132Z,100.25
2023-02-16T23:47:09.386Z,98.28
2023-02-16T23:50:13.215Z,100.00
2023-02-16T23:53:16.795Z,96.80
2023-02-16T23:56:26.482Z,100.47
2023-02-16T23:59:29.812Z,95.38
